METAR Data
IDs: Format: Raw Decoded Include TAF

Data at: 0742 UTC 23 Oct 2018

METAR for:KFGX (Flemingsburg Arpt, KY, US)
Text:KFGX 230735Z AUTO 22005KT 10SM CLR 07/02 A3017 RMK AO2 T00650020
Temperature: 6.5°C ( 44°F)
Dewpoint: 2.0°C ( 36°F) [RH = 73%]
Pressure (altimeter):30.17 inches Hg (1021.8 mb)
Winds:from the SW (220 degrees) at 6 MPH (5 knots; 2.6 m/s)
Visibility:10 or more sm (16+ km)
Ceiling:at least 12,000 feet AGL
Clouds:sky clear below 12,000 feet AGL
QC Flag:automated observation with no human augmentation